KMCB/MCB METAR and TAF weather

Enter ICAO airport designator
Station Type Date Time Source
KMCB METAR 2022/08/13 11:14 UTC NOAA

KMCB 131114Z AUTO 00000KT 5SM BR OVC002 23/23 A3003 RMK AO2 T02280228


Station Type Date Time Source
KMCB Decoded METAR 2022/08/13 11:14 UTC NOAA

MCCOMB/PIKE COUNTY AIRPORT, MS, United States (KMCB) 31-11N 90-28W 124M
Aug 13, 2022 - 07:14 AM EDT / 2022.08.13 1114 UTC
Wind: Calm:0
Visibility: 5 mile(s):0
Sky conditions: overcast
Weather: mist
Temperature: 73.0 F (22.8 C)
Dew Point: 73.0 F (22.8 C)
Relative Humidity: 100%
Pressure (altimeter): 30.03 in. Hg (1016 hPa)
ob: KMCB 131114Z AUTO 00000KT 5SM BR OVC002 23/23 A3003 RMK AO2 T02280228
cycle: 11

Station Type Date Time Source
KMCB TAF 2022/08/13 12:34 UTC NOAA

TAF KMCB 131134Z 1312/1412 00000KT 4SM BR OVC002
TEMPO 1312/1313 1/2SM FG
FM131400 00000KT P6SM SCT020
FM131500 18005KT P6SM VCSH BKN025
FM140000 00000KT P6SM SCT250
FM140900 00000KT 3SM BR SCT003

Example: see airport list